Terminal Aerodrome Forecast
Issued by NWS Quad Cities IA IL

Home | Current Version | Previous Version | Text Only | Print | Product List | Glossary On
Versions: 1 2 3 4 5 6 7 8 9 10 11 12 13 14 15 16 17 18 19 20 21 22 23 24
000
FTUS43 KDVN 251100 RRA
TAFMLI
TAF
KMLI 251130Z 2512/2612 28005KT 3/4SM BR OVC003
      TEMPO 2512/2513 1/4SM FG VV002
     FM251300 28007KT 5SM BR SKC
     FM251500 31008KT P6SM SCT200
     FM260000 29005KT P6SM SKC=

USA.gov is the U.S. government's official web portal to all federal, state and local government web resources and services.